N87LA PAVD-PAJN
Flight info
| Callsign | N87LA |
|---|---|
| Flight time | 1h 32m |
| Altitude | 35000 |
| Route | JMAAL4 NAKED YAK BERGS |
| Aircraft | STAR/L-SDFGRWY/S |
Departure
| Time | 2026-04-21 22:22 |
|---|---|
| Airport | Valdez Pioneer Field (PAVD) |
Arrival
| Time | 2026-04-21 23:55 |
|---|---|
| Airport | Juneau International Airport (PAJN) |
| Time | Latitude | Longitude | Altitude | Speed | Heading |
|---|---|---|---|---|---|
| 2026-04-21 22:07 | 61.13145 | -146.24815 | 73 ft | 0 kts | 348° |
| 2026-04-21 22:17 | 61.13151 | -146.24817 | 75 ft | 3 kts | 348° |
| 2026-04-21 22:17 | 61.13189 | -146.24823 | 76 ft | 6 kts | 22° |
| 2026-04-21 22:17 | 61.13204 | -146.24723 | 80 ft | 15 kts | 81° |
| 2026-04-21 22:17 | 61.13226 | -146.24486 | 85 ft | 14 kts | 79° |
| 2026-04-21 22:18 | 61.13237 | -146.24371 | 89 ft | 13 kts | 79° |
| 2026-04-21 22:18 | 61.13259 | -146.24121 | 92 ft | 20 kts | 80° |
| 2026-04-21 22:18 | 61.13286 | -146.23825 | 99 ft | 22 kts | 79° |
| 2026-04-21 22:18 | 61.13315 | -146.23514 | 106 ft | 22 kts | 79° |
| 2026-04-21 22:19 | 61.13335 | -146.23305 | 109 ft | 9 kts | 78° |
| 2026-04-21 22:19 | 61.13358 | -146.23051 | 118 ft | 14 kts | 80° |
| 2026-04-21 22:19 | 61.13377 | -146.22830 | 123 ft | 15 kts | 80° |
| 2026-04-21 22:19 | 61.13403 | -146.22669 | 127 ft | 10 kts | 41° |
| 2026-04-21 22:20 | 61.13440 | -146.22645 | 126 ft | 8 kts | 355° |
| 2026-04-21 22:20 | 61.13488 | -146.22658 | 127 ft | 5 kts | 352° |
| 2026-04-21 22:20 | 61.13526 | -146.22672 | 127 ft | 5 kts | 349° |
| 2026-04-21 22:20 | 61.13551 | -146.22743 | 126 ft | 8 kts | 254° |
| 2026-04-21 22:21 | 61.13547 | -146.22789 | 125 ft | 0 kts | 261° |
| 2026-04-21 22:21 | 61.13539 | -146.22895 | 121 ft | 29 kts | 261° |
| 2026-04-21 22:22 | 61.13506 | -146.23346 | 108 ft | 64 kts | 261° |
| 2026-04-21 22:22 | 61.13418 | -146.24554 | 169 ft | 101 kts | 261° |
| 2026-04-21 22:22 | 61.13268 | -146.26111 | 721 ft | 122 kts | 253° |
| 2026-04-21 22:22 | 61.13002 | -146.27908 | 1307 ft | 137 kts | 253° |
| 2026-04-21 22:23 | 61.12738 | -146.29880 | 1829 ft | 147 kts | 255° |
| 2026-04-21 22:23 | 61.12471 | -146.32099 | 2246 ft | 172 kts | 256° |
| 2026-04-21 22:23 | 61.12170 | -146.34634 | 2776 ft | 191 kts | 255° |
| 2026-04-21 22:23 | 61.11816 | -146.37434 | 3227 ft | 213 kts | 256° |
| 2026-04-21 22:24 | 61.11470 | -146.40589 | 3520 ft | 236 kts | 258° |
| 2026-04-21 22:24 | 61.11085 | -146.43965 | 3905 ft | 241 kts | 256° |
| 2026-04-21 22:24 | 61.10709 | -146.47335 | 4251 ft | 246 kts | 258° |
| 2026-04-21 22:24 | 61.10435 | -146.50863 | 4473 ft | 251 kts | 262° |
| 2026-04-21 22:25 | 61.10180 | -146.54421 | 4679 ft | 250 kts | 259° |
| 2026-04-21 22:25 | 61.09720 | -146.57850 | 4772 ft | 247 kts | 249° |
| 2026-04-21 22:25 | 61.08920 | -146.60973 | 4921 ft | 243 kts | 236° |
| 2026-04-21 22:25 | 61.08030 | -146.63845 | 5419 ft | 227 kts | 245° |
| 2026-04-21 22:26 | 61.07439 | -146.66679 | 6637 ft | 205 kts | 249° |
| 2026-04-21 22:26 | 61.06884 | -146.69235 | 7786 ft | 184 kts | 245° |
| 2026-04-21 22:26 | 61.06341 | -146.71471 | 8976 ft | 165 kts | 245° |
| 2026-04-21 22:26 | 61.05929 | -146.73483 | 10131 ft | 152 kts | 251° |
| 2026-04-21 22:27 | 61.05867 | -146.75698 | 10850 ft | 160 kts | 281° |
| 2026-04-21 22:27 | 61.05989 | -146.77948 | 11867 ft | 156 kts | 274° |
| 2026-04-21 22:27 | 61.05981 | -146.80165 | 12881 ft | 152 kts | 270° |
| 2026-04-21 22:27 | 61.05889 | -146.82317 | 13955 ft | 149 kts | 269° |
| 2026-04-21 22:28 | 61.05747 | -146.84427 | 14768 ft | 147 kts | 267° |
| 2026-04-21 22:28 | 61.05566 | -146.86445 | 15627 ft | 141 kts | 263° |
| 2026-04-21 22:28 | 61.04873 | -146.88006 | 16605 ft | 163 kts | 225° |
| 2026-04-21 22:28 | 61.03832 | -146.89017 | 17480 ft | 167 kts | 221° |
| 2026-04-21 22:29 | 61.02786 | -146.89936 | 18439 ft | 165 kts | 222° |
| 2026-04-21 22:29 | 61.01728 | -146.90893 | 19281 ft | 162 kts | 225° |
| 2026-04-21 22:29 | 61.00728 | -146.91845 | 20094 ft | 160 kts | 227° |
| 2026-04-21 22:29 | 60.99734 | -146.92833 | 20918 ft | 154 kts | 233° |
| 2026-04-21 22:30 | 60.98846 | -146.93964 | 21774 ft | 148 kts | 238° |
| 2026-04-21 22:30 | 60.97991 | -146.95098 | 22640 ft | 146 kts | 239° |
| 2026-04-21 22:30 | 60.97124 | -146.96200 | 23516 ft | 146 kts | 240° |
| 2026-04-21 22:30 | 60.96255 | -146.97278 | 24233 ft | 146 kts | 241° |
| 2026-04-21 22:31 | 60.95385 | -146.98369 | 24889 ft | 147 kts | 241° |
| 2026-04-21 22:31 | 60.94512 | -146.99462 | 25601 ft | 147 kts | 242° |
| 2026-04-21 22:31 | 60.93645 | -147.00549 | 26230 ft | 148 kts | 243° |
| 2026-04-21 22:31 | 60.92762 | -147.01661 | 26873 ft | 150 kts | 243° |
| 2026-04-21 22:32 | 60.91868 | -147.02783 | 27447 ft | 152 kts | 243° |
| 2026-04-21 22:32 | 60.90958 | -147.03928 | 28012 ft | 155 kts | 243° |
| 2026-04-21 22:32 | 60.90024 | -147.05086 | 28633 ft | 158 kts | 243° |
| 2026-04-21 22:32 | 60.89079 | -147.06258 | 29231 ft | 160 kts | 243° |
| 2026-04-21 22:33 | 60.88125 | -147.07454 | 29728 ft | 161 kts | 243° |
| 2026-04-21 22:33 | 60.87164 | -147.08658 | 30227 ft | 163 kts | 243° |
| 2026-04-21 22:33 | 60.86201 | -147.09868 | 30595 ft | 166 kts | 242° |
| 2026-04-21 22:33 | 60.85200 | -147.11118 | 30963 ft | 171 kts | 240° |
| 2026-04-21 22:34 | 60.84171 | -147.12388 | 31326 ft | 174 kts | 239° |
| 2026-04-21 22:34 | 60.83129 | -147.13679 | 31684 ft | 176 kts | 239° |
| 2026-04-21 22:34 | 60.82072 | -147.14998 | 32038 ft | 179 kts | 238° |
| 2026-04-21 22:34 | 60.80997 | -147.16333 | 32368 ft | 182 kts | 237° |
| 2026-04-21 22:35 | 60.79906 | -147.17685 | 32700 ft | 184 kts | 236° |
| 2026-04-21 22:35 | 60.78817 | -147.19036 | 33028 ft | 187 kts | 236° |
| 2026-04-21 22:35 | 60.77700 | -147.20422 | 33344 ft | 189 kts | 234° |
| 2026-04-21 22:35 | 60.76566 | -147.21826 | 33654 ft | 191 kts | 234° |
| 2026-04-21 22:36 | 60.74261 | -147.24676 | 34216 ft | 196 kts | 233° |
| 2026-04-21 22:36 | 60.73091 | -147.26123 | 34439 ft | 198 kts | 232° |
| 2026-04-21 22:36 | 60.71909 | -147.27581 | 34651 ft | 200 kts | 231° |
| 2026-04-21 22:37 | 60.70711 | -147.29058 | 34842 ft | 202 kts | 231° |
| 2026-04-21 22:37 | 60.69513 | -147.30541 | 34967 ft | 207 kts | 230° |
| 2026-04-21 22:37 | 60.68254 | -147.32094 | 35030 ft | 216 kts | 229° |
| 2026-04-21 22:37 | 60.66936 | -147.33709 | 35062 ft | 226 kts | 229° |
| 2026-04-21 22:38 | 60.65563 | -147.35391 | 35020 ft | 235 kts | 229° |
| 2026-04-21 22:38 | 60.64039 | -147.36902 | 35056 ft | 263 kts | 212° |
| 2026-04-21 22:38 | 60.62084 | -147.37045 | 35075 ft | 303 kts | 184° |
| 2026-04-21 22:38 | 60.60020 | -147.35473 | 35085 ft | 333 kts | 159° |
| 2026-04-21 22:39 | 60.58217 | -147.32310 | 35091 ft | 353 kts | 134° |
| 2026-04-21 22:39 | 60.56972 | -147.27952 | 35093 ft | 361 kts | 110° |
| 2026-04-21 22:39 | 60.56472 | -147.23046 | 35093 ft | 358 kts | 87° |
| 2026-04-21 22:39 | 60.56724 | -147.18095 | 35093 ft | 350 kts | 69° |
| 2026-04-21 22:40 | 60.57951 | -147.08500 | 35096 ft | 352 kts | 65° |
| 2026-04-21 22:40 | 60.58278 | -147.03473 | 35126 ft | 366 kts | 85° |
| 2026-04-21 22:40 | 60.58098 | -146.98262 | 35111 ft | 372 kts | 96° |
| 2026-04-21 22:41 | 60.56832 | -146.87982 | 35097 ft | 376 kts | 100° |
| 2026-04-21 22:41 | 60.55663 | -146.77660 | 35095 ft | 378 kts | 102° |
| 2026-04-21 22:42 | 60.54466 | -146.67262 | 35096 ft | 379 kts | 102° |
| 2026-04-21 22:42 | 60.53247 | -146.56829 | 35097 ft | 380 kts | 102° |
| 2026-04-21 22:43 | 60.52015 | -146.46401 | 35094 ft | 380 kts | 102° |
| 2026-04-21 22:43 | 60.50773 | -146.35965 | 35091 ft | 380 kts | 102° |
| 2026-04-21 22:44 | 60.49532 | -146.25602 | 35093 ft | 380 kts | 102° |
| 2026-04-21 22:44 | 60.48275 | -146.15181 | 35087 ft | 381 kts | 102° |
| 2026-04-21 22:45 | 60.47011 | -146.04775 | 35086 ft | 380 kts | 102° |
| 2026-04-21 22:45 | 60.45738 | -145.94377 | 35086 ft | 380 kts | 102° |
| 2026-04-21 22:46 | 60.44468 | -145.84071 | 35093 ft | 380 kts | 102° |
| 2026-04-21 22:46 | 60.43179 | -145.73690 | 35094 ft | 380 kts | 102° |
| 2026-04-21 22:47 | 60.41884 | -145.63333 | 35082 ft | 379 kts | 102° |
| 2026-04-21 22:47 | 60.40584 | -145.53001 | 35089 ft | 378 kts | 102° |
| 2026-04-21 22:48 | 60.39288 | -145.42772 | 35086 ft | 378 kts | 102° |
| 2026-04-21 22:48 | 60.37966 | -145.32412 | 35072 ft | 378 kts | 102° |
| 2026-04-21 22:49 | 60.36654 | -145.22196 | 35077 ft | 378 kts | 102° |
| 2026-04-21 22:49 | 60.35325 | -145.11929 | 35059 ft | 378 kts | 102° |
| 2026-04-21 22:50 | 60.33989 | -145.01664 | 35080 ft | 378 kts | 103° |
| 2026-04-21 22:50 | 60.32646 | -144.91426 | 35073 ft | 377 kts | 103° |
| 2026-04-21 22:51 | 60.31307 | -144.81278 | 35058 ft | 376 kts | 103° |
| 2026-04-21 22:51 | 60.29958 | -144.71121 | 35056 ft | 374 kts | 103° |
| 2026-04-21 22:52 | 60.28605 | -144.61002 | 35058 ft | 374 kts | 103° |
| 2026-04-21 22:52 | 60.27242 | -144.50881 | 35058 ft | 374 kts | 103° |
| 2026-04-21 22:53 | 60.25885 | -144.40867 | 35059 ft | 373 kts | 103° |
| 2026-04-21 22:53 | 60.24513 | -144.30798 | 35047 ft | 373 kts | 103° |
| 2026-04-21 22:54 | 60.23136 | -144.20755 | 35054 ft | 372 kts | 103° |
| 2026-04-21 22:54 | 60.21752 | -144.10741 | 35058 ft | 371 kts | 103° |
| 2026-04-21 22:55 | 60.20363 | -144.00744 | 35056 ft | 371 kts | 103° |
| 2026-04-21 22:55 | 60.18975 | -143.90819 | 35056 ft | 371 kts | 103° |
| 2026-04-21 22:56 | 60.17572 | -143.80844 | 35059 ft | 371 kts | 104° |
| 2026-04-21 22:56 | 60.16161 | -143.70879 | 35059 ft | 371 kts | 104° |
| 2026-04-21 22:57 | 60.14742 | -143.60916 | 35059 ft | 371 kts | 104° |
| 2026-04-21 22:57 | 60.13326 | -143.51035 | 35061 ft | 371 kts | 104° |
| 2026-04-21 22:58 | 60.11892 | -143.41081 | 35061 ft | 371 kts | 104° |
| 2026-04-21 22:58 | 60.10452 | -143.31156 | 35062 ft | 371 kts | 104° |
| 2026-04-21 22:59 | 60.09002 | -143.21220 | 35061 ft | 371 kts | 104° |
| 2026-04-21 22:59 | 60.07556 | -143.11370 | 35061 ft | 371 kts | 104° |
| 2026-04-21 23:00 | 60.06093 | -143.01460 | 35062 ft | 371 kts | 104° |
| 2026-04-21 23:00 | 60.04624 | -142.91572 | 35064 ft | 370 kts | 104° |
| 2026-04-21 23:01 | 60.03151 | -142.81717 | 35062 ft | 370 kts | 104° |
| 2026-04-21 23:01 | 60.01681 | -142.71938 | 35062 ft | 369 kts | 105° |
| 2026-04-21 23:02 | 60.00196 | -142.62113 | 35061 ft | 369 kts | 105° |
| 2026-04-21 23:02 | 59.98705 | -142.52310 | 35061 ft | 369 kts | 105° |
| 2026-04-21 23:03 | 59.97207 | -142.42514 | 35063 ft | 369 kts | 105° |
| 2026-04-21 23:03 | 59.95712 | -142.32795 | 35057 ft | 368 kts | 105° |
| 2026-04-21 23:04 | 59.94203 | -142.23038 | 35061 ft | 367 kts | 105° |
| 2026-04-21 23:04 | 59.92682 | -142.13263 | 35063 ft | 367 kts | 105° |
| 2026-04-21 23:05 | 59.91174 | -142.03621 | 35062 ft | 367 kts | 105° |
| 2026-04-21 23:05 | 59.89651 | -141.93939 | 35062 ft | 366 kts | 105° |
| 2026-04-21 23:06 | 59.88119 | -141.84256 | 35059 ft | 366 kts | 105° |
| 2026-04-21 23:06 | 59.86581 | -141.74587 | 35066 ft | 366 kts | 105° |
| 2026-04-21 23:07 | 59.85047 | -141.65003 | 35058 ft | 366 kts | 105° |
| 2026-04-21 23:07 | 59.83498 | -141.55370 | 35065 ft | 365 kts | 106° |
| 2026-04-21 23:08 | 59.81944 | -141.45761 | 35063 ft | 365 kts | 106° |
| 2026-04-21 23:08 | 59.80381 | -141.36149 | 35065 ft | 365 kts | 106° |
| 2026-04-21 23:09 | 59.78824 | -141.26620 | 35060 ft | 365 kts | 106° |
| 2026-04-21 23:09 | 59.77246 | -141.17021 | 35062 ft | 366 kts | 106° |
| 2026-04-21 23:10 | 59.75662 | -141.07434 | 35065 ft | 366 kts | 106° |
| 2026-04-21 23:10 | 59.74073 | -140.97865 | 35088 ft | 365 kts | 107° |
| 2026-04-21 23:11 | 59.72478 | -140.88322 | 35070 ft | 364 kts | 107° |
| 2026-04-21 23:11 | 59.70890 | -140.78861 | 35070 ft | 364 kts | 107° |
| 2026-04-21 23:12 | 59.69289 | -140.69372 | 35059 ft | 363 kts | 107° |
| 2026-04-21 23:12 | 59.67683 | -140.59903 | 35069 ft | 363 kts | 107° |
| 2026-04-21 23:13 | 59.66071 | -140.50451 | 35065 ft | 363 kts | 107° |
| 2026-04-21 23:13 | 59.64463 | -140.41070 | 35069 ft | 363 kts | 107° |
| 2026-04-21 23:14 | 59.62839 | -140.31650 | 35071 ft | 362 kts | 107° |
| 2026-04-21 23:14 | 59.61211 | -140.22244 | 35072 ft | 361 kts | 107° |
| 2026-04-21 23:15 | 59.59578 | -140.12864 | 35077 ft | 361 kts | 108° |
| 2026-04-21 23:15 | 59.57938 | -140.03490 | 35077 ft | 361 kts | 108° |
| 2026-04-21 23:16 | 59.56305 | -139.94202 | 35077 ft | 361 kts | 108° |
| 2026-04-21 23:16 | 59.54652 | -139.84849 | 35081 ft | 361 kts | 108° |
| 2026-04-21 23:17 | 59.52994 | -139.75510 | 35064 ft | 361 kts | 108° |
| 2026-04-21 23:17 | 59.51306 | -139.66200 | 35088 ft | 360 kts | 110° |
| 2026-04-21 23:18 | 59.49055 | -139.57496 | 35089 ft | 360 kts | 122° |
| 2026-04-21 23:18 | 59.46667 | -139.48836 | 35090 ft | 360 kts | 120° |
| 2026-04-21 23:19 | 59.44267 | -139.40199 | 35089 ft | 360 kts | 119° |
| 2026-04-21 23:19 | 59.41854 | -139.31581 | 35086 ft | 360 kts | 119° |
| 2026-04-21 23:20 | 59.39450 | -139.23020 | 35085 ft | 360 kts | 119° |
| 2026-04-21 23:20 | 59.37031 | -139.14420 | 35078 ft | 360 kts | 119° |
| 2026-04-21 23:21 | 59.34610 | -139.05845 | 35084 ft | 359 kts | 119° |
| 2026-04-21 23:21 | 59.32185 | -138.97292 | 35088 ft | 359 kts | 119° |
| 2026-04-21 23:22 | 59.29754 | -138.88752 | 35089 ft | 359 kts | 120° |
| 2026-04-21 23:22 | 59.27336 | -138.80286 | 35089 ft | 359 kts | 120° |
| 2026-04-21 23:23 | 59.24895 | -138.71770 | 35094 ft | 359 kts | 120° |
| 2026-04-21 23:23 | 59.22447 | -138.63265 | 35088 ft | 359 kts | 120° |
| 2026-04-21 23:24 | 59.19996 | -138.54777 | 35095 ft | 359 kts | 120° |
| 2026-04-21 23:24 | 59.17558 | -138.46365 | 35135 ft | 359 kts | 120° |
| 2026-04-21 23:25 | 59.15098 | -138.37917 | 35109 ft | 358 kts | 120° |
| 2026-04-21 23:25 | 59.12637 | -138.29485 | 35107 ft | 358 kts | 120° |
| 2026-04-21 23:26 | 59.10175 | -138.21085 | 35107 ft | 357 kts | 120° |
| 2026-04-21 23:26 | 59.08935 | -138.16866 | 34865 ft | 366 kts | 120° |
| 2026-04-21 23:26 | 59.07644 | -138.12485 | 34419 ft | 379 kts | 120° |
| 2026-04-21 23:27 | 59.06311 | -138.07965 | 33955 ft | 391 kts | 120° |
| 2026-04-21 23:27 | 59.04962 | -138.03392 | 33466 ft | 401 kts | 120° |
| 2026-04-21 23:27 | 59.03556 | -137.98661 | 32976 ft | 409 kts | 119° |
| 2026-04-21 23:27 | 59.02128 | -137.93833 | 32495 ft | 416 kts | 119° |
| 2026-04-21 23:28 | 59.00667 | -137.88935 | 32018 ft | 422 kts | 119° |
| 2026-04-21 23:28 | 58.99194 | -137.83975 | 31554 ft | 427 kts | 118° |
| 2026-04-21 23:28 | 58.97690 | -137.78962 | 31097 ft | 432 kts | 118° |
| 2026-04-21 23:28 | 58.96180 | -137.73895 | 30649 ft | 437 kts | 118° |
| 2026-04-21 23:29 | 58.94638 | -137.68768 | 30203 ft | 442 kts | 118° |
| 2026-04-21 23:29 | 58.93086 | -137.63604 | 29683 ft | 446 kts | 118° |
| 2026-04-21 23:29 | 58.91524 | -137.58414 | 29167 ft | 449 kts | 118° |
| 2026-04-21 23:29 | 58.89975 | -137.53303 | 28652 ft | 442 kts | 118° |
| 2026-04-21 23:30 | 58.88445 | -137.48221 | 28116 ft | 433 kts | 120° |
| 2026-04-21 23:30 | 58.86926 | -137.43242 | 27614 ft | 428 kts | 118° |
| 2026-04-21 23:30 | 58.85425 | -137.38281 | 27141 ft | 428 kts | 118° |
| 2026-04-21 23:30 | 58.83917 | -137.33339 | 26656 ft | 426 kts | 119° |
| 2026-04-21 23:31 | 58.82413 | -137.28415 | 26191 ft | 425 kts | 118° |
| 2026-04-21 23:31 | 58.80914 | -137.23510 | 25720 ft | 423 kts | 119° |
| 2026-04-21 23:31 | 58.79420 | -137.18641 | 25267 ft | 422 kts | 119° |
| 2026-04-21 23:31 | 58.77928 | -137.13784 | 24822 ft | 420 kts | 119° |
| 2026-04-21 23:32 | 58.76437 | -137.08935 | 24388 ft | 420 kts | 119° |
| 2026-04-21 23:32 | 58.74966 | -137.04172 | 23935 ft | 418 kts | 119° |
| 2026-04-21 23:32 | 58.73492 | -136.99406 | 23472 ft | 413 kts | 119° |
| 2026-04-21 23:32 | 58.72032 | -136.94683 | 22959 ft | 408 kts | 120° |
| 2026-04-21 23:33 | 58.70579 | -136.90010 | 22455 ft | 405 kts | 120° |
| 2026-04-21 23:33 | 58.69141 | -136.85381 | 21965 ft | 402 kts | 120° |
| 2026-04-21 23:33 | 58.67710 | -136.80790 | 21473 ft | 399 kts | 120° |
| 2026-04-21 23:33 | 58.66290 | -136.76242 | 20996 ft | 396 kts | 120° |
| 2026-04-21 23:34 | 58.64875 | -136.71716 | 20532 ft | 394 kts | 120° |
| 2026-04-21 23:34 | 58.63467 | -136.67223 | 20061 ft | 392 kts | 120° |
| 2026-04-21 23:34 | 58.62068 | -136.62763 | 19596 ft | 387 kts | 120° |
| 2026-04-21 23:34 | 58.60678 | -136.58354 | 19154 ft | 385 kts | 121° |
| 2026-04-21 23:35 | 58.59296 | -136.53970 | 18712 ft | 382 kts | 121° |
| 2026-04-21 23:35 | 58.57929 | -136.49635 | 18236 ft | 378 kts | 121° |
| 2026-04-21 23:35 | 58.56591 | -136.45402 | 17746 ft | 375 kts | 121° |
| 2026-04-21 23:35 | 58.55241 | -136.41152 | 17253 ft | 372 kts | 121° |
| 2026-04-21 23:36 | 58.53906 | -136.36938 | 16770 ft | 369 kts | 122° |
| 2026-04-21 23:36 | 58.52571 | -136.32753 | 16285 ft | 368 kts | 122° |
| 2026-04-21 23:36 | 58.51245 | -136.28580 | 15818 ft | 366 kts | 122° |
| 2026-04-21 23:36 | 58.49921 | -136.24441 | 15347 ft | 364 kts | 122° |
| 2026-04-21 23:37 | 58.48606 | -136.20324 | 14906 ft | 362 kts | 122° |
| 2026-04-21 23:37 | 58.47294 | -136.16226 | 14454 ft | 360 kts | 122° |
| 2026-04-21 23:37 | 58.45989 | -136.12164 | 14007 ft | 358 kts | 122° |
| 2026-04-21 23:37 | 58.44691 | -136.08123 | 13529 ft | 356 kts | 122° |
| 2026-04-21 23:38 | 58.43402 | -136.04119 | 13031 ft | 349 kts | 122° |
| 2026-04-21 23:38 | 58.42181 | -136.00338 | 12562 ft | 330 kts | 122° |
| 2026-04-21 23:38 | 58.40992 | -135.96653 | 12080 ft | 315 kts | 122° |
| 2026-04-21 23:38 | 58.39879 | -135.93213 | 11627 ft | 304 kts | 122° |
| 2026-04-21 23:39 | 58.38785 | -135.89839 | 11163 ft | 295 kts | 122° |
| 2026-04-21 23:39 | 58.37722 | -135.86561 | 10703 ft | 287 kts | 122° |
| 2026-04-21 23:39 | 58.36685 | -135.83369 | 10257 ft | 280 kts | 122° |
| 2026-04-21 23:39 | 58.35673 | -135.80259 | 9791 ft | 273 kts | 122° |
| 2026-04-21 23:40 | 58.34680 | -135.77208 | 9292 ft | 268 kts | 123° |
| 2026-04-21 23:40 | 58.33708 | -135.74228 | 8805 ft | 263 kts | 123° |
| 2026-04-21 23:40 | 58.32749 | -135.71296 | 8325 ft | 259 kts | 123° |
| 2026-04-21 23:40 | 58.31819 | -135.68451 | 7859 ft | 255 kts | 123° |
| 2026-04-21 23:41 | 58.30888 | -135.65604 | 7394 ft | 252 kts | 124° |
| 2026-04-21 23:41 | 58.29969 | -135.62803 | 6991 ft | 246 kts | 124° |
| 2026-04-21 23:41 | 58.29095 | -135.60139 | 6873 ft | 230 kts | 124° |
| 2026-04-21 23:41 | 58.28273 | -135.57634 | 6746 ft | 217 kts | 124° |
| 2026-04-21 23:42 | 58.27490 | -135.55247 | 6622 ft | 209 kts | 125° |
| 2026-04-21 23:42 | 58.26727 | -135.52942 | 6490 ft | 203 kts | 126° |
| 2026-04-21 23:42 | 58.25982 | -135.50703 | 6340 ft | 199 kts | 124° |
| 2026-04-21 23:42 | 58.25262 | -135.48498 | 6205 ft | 195 kts | 124° |
| 2026-04-21 23:43 | 58.24518 | -135.46233 | 6066 ft | 216 kts | 124° |
| 2026-04-21 23:43 | 58.23660 | -135.43658 | 5937 ft | 243 kts | 124° |
| 2026-04-21 23:43 | 58.22730 | -135.40834 | 5802 ft | 261 kts | 123° |
| 2026-04-21 23:43 | 58.21751 | -135.37867 | 5683 ft | 269 kts | 124° |
| 2026-04-21 23:44 | 58.20744 | -135.34847 | 5623 ft | 271 kts | 124° |
| 2026-04-21 23:44 | 58.19765 | -135.31892 | 5605 ft | 267 kts | 124° |
| 2026-04-21 23:44 | 58.18811 | -135.28889 | 5340 ft | 264 kts | 118° |
| 2026-04-21 23:44 | 58.18386 | -135.25612 | 5199 ft | 251 kts | 91° |
| 2026-04-21 23:45 | 58.18702 | -135.22457 | 5022 ft | 239 kts | 70° |
| 2026-04-21 23:45 | 58.19984 | -135.16884 | 4644 ft | 224 kts | 60° |
| 2026-04-21 23:45 | 58.20803 | -135.14457 | 4555 ft | 213 kts | 53° |
| 2026-04-21 23:46 | 58.21646 | -135.12200 | 4457 ft | 208 kts | 52° |
| 2026-04-21 23:46 | 58.22597 | -135.10111 | 4173 ft | 211 kts | 41° |
| 2026-04-21 23:46 | 58.23674 | -135.08334 | 4060 ft | 206 kts | 36° |
| 2026-04-21 23:46 | 58.24843 | -135.06830 | 3964 ft | 201 kts | 27° |
| 2026-04-21 23:47 | 58.26053 | -135.05628 | 4045 ft | 194 kts | 22° |
| 2026-04-21 23:47 | 58.27316 | -135.04719 | 3998 ft | 196 kts | 14° |
| 2026-04-21 23:47 | 58.28639 | -135.03984 | 3858 ft | 201 kts | 12° |
| 2026-04-21 23:47 | 58.30001 | -135.03282 | 3693 ft | 206 kts | 11° |
| 2026-04-21 23:48 | 58.31384 | -135.02425 | 3425 ft | 217 kts | 23° |
| 2026-04-21 23:48 | 58.32585 | -135.00593 | 3190 ft | 226 kts | 50° |
| 2026-04-21 23:48 | 58.33317 | -134.97957 | 3074 ft | 226 kts | 70° |
| 2026-04-21 23:48 | 58.33869 | -134.95162 | 2952 ft | 225 kts | 68° |
| 2026-04-21 23:49 | 58.34438 | -134.92422 | 2955 ft | 219 kts | 68° |
| 2026-04-21 23:49 | 58.34960 | -134.89725 | 2969 ft | 214 kts | 72° |
| 2026-04-21 23:49 | 58.35387 | -134.87060 | 2892 ft | 215 kts | 74° |
| 2026-04-21 23:49 | 58.35680 | -134.84352 | 2738 ft | 204 kts | 83° |
| 2026-04-21 23:50 | 58.35870 | -134.81768 | 2563 ft | 191 kts | 83° |
| 2026-04-21 23:50 | 58.36025 | -134.79344 | 2440 ft | 177 kts | 84° |
| 2026-04-21 23:50 | 58.36120 | -134.77086 | 2354 ft | 166 kts | 93° |
| 2026-04-21 23:50 | 58.36043 | -134.74982 | 2318 ft | 157 kts | 96° |
| 2026-04-21 23:51 | 58.35966 | -134.72881 | 2284 ft | 162 kts | 94° |
| 2026-04-21 23:51 | 58.35904 | -134.70711 | 2133 ft | 165 kts | 98° |
| 2026-04-21 23:51 | 58.35769 | -134.68610 | 2045 ft | 154 kts | 102° |
| 2026-04-21 23:51 | 58.35588 | -134.66658 | 1799 ft | 144 kts | 104° |
| 2026-04-21 23:52 | 58.35401 | -134.64862 | 1563 ft | 132 kts | 107° |
| 2026-04-21 23:52 | 58.35206 | -134.63175 | 1352 ft | 129 kts | 108° |
| 2026-04-21 23:52 | 58.34999 | -134.61572 | 1216 ft | 121 kts | 110° |
| 2026-04-21 23:52 | 58.34790 | -134.60022 | 1236 ft | 128 kts | 109° |
| 2026-04-21 23:53 | 58.34589 | -134.58238 | 1262 ft | 145 kts | 103° |
| 2026-04-21 23:53 | 58.34358 | -134.56339 | 1287 ft | 149 kts | 107° |
| 2026-04-21 23:53 | 58.34067 | -134.54420 | 1257 ft | 154 kts | 108° |
| 2026-04-21 23:53 | 58.33837 | -134.52502 | 1205 ft | 144 kts | 87° |
| 2026-04-21 23:54 | 58.34474 | -134.51493 | 1014 ft | 126 kts | 350° |
| 2026-04-21 23:54 | 58.34954 | -134.52605 | 737 ft | 115 kts | 272° |
| 2026-04-21 23:54 | 58.35029 | -134.54182 | 383 ft | 123 kts | 283° |
| 2026-04-21 23:54 | 58.35232 | -134.55760 | 61 ft | 119 kts | 287° |
| 2026-04-21 23:55 | 58.35427 | -134.57122 | 29 ft | 95 kts | 287° |
| 2026-04-21 23:55 | 58.35558 | -134.58096 | 28 ft | 50 kts | 285° |
| 2026-04-21 23:55 | 58.35609 | -134.58436 | 28 ft | 26 kts | 284° |
| 2026-04-21 23:55 | 58.35682 | -134.58618 | 28 ft | 10 kts | 356° |
| 2026-04-21 23:56 | 58.35714 | -134.58621 | 29 ft | 0 kts | 357° |
| 2026-04-21 23:56 | 58.35731 | -134.58517 | 29 ft | 14 kts | 104° |
| 2026-04-21 23:56 | 58.35696 | -134.58254 | 29 ft | 23 kts | 104° |
| 2026-04-21 23:57 | 58.35655 | -134.57966 | 29 ft | 24 kts | 105° |
| 2026-04-21 23:57 | 58.35613 | -134.57666 | 30 ft | 25 kts | 105° |
| 2026-04-21 23:57 | 58.35567 | -134.57337 | 30 ft | 24 kts | 104° |
| 2026-04-21 23:57 | 58.35533 | -134.57077 | 29 ft | 17 kts | 104° |
| 2026-04-21 23:58 | 58.35510 | -134.56865 | 29 ft | 14 kts | 78° |
| 2026-04-21 23:58 | 58.35594 | -134.56772 | 29 ft | 10 kts | 14° |
| 2026-04-21 23:58 | 58.35669 | -134.56769 | 29 ft | 10 kts | 339° |
| 2026-04-21 23:58 | 58.35723 | -134.56755 | 29 ft | 8 kts | 63° |
| 2026-04-21 23:59 | 58.35724 | -134.56667 | 29 ft | 0 kts | 94° |